createdAt,value
2023-05-11T00:01:19.626Z,77.41
2023-05-11T00:03:47.960Z,77.17
2023-05-11T00:06:15.543Z,77.21
2023-05-11T00:08:43.120Z,76.98
2023-05-11T00:11:10.828Z,77.23
2023-05-11T00:13:38.464Z,76.85
2023-05-11T00:16:06.648Z,76.78
2023-05-11T00:18:34.257Z,77.23
2023-05-11T00:21:02.489Z,76.74
2023-05-11T00:23:30.205Z,76.79
2023-05-11T00:25:57.767Z,77.11
2023-05-11T00:28:26.041Z,77.69
2023-05-11T00:30:57.759Z,77.54
2023-05-11T00:33:26.105Z,77.26
2023-05-11T00:35:54.048Z,77.69
2023-05-11T00:38:21.585Z,77.32
2023-05-11T00:40:49.821Z,77.29
2023-05-11T00:43:17.497Z,77.24
2023-05-11T00:45:48.290Z,77.34
2023-05-11T00:48:16.997Z,77.55
2023-05-11T00:50:45.178Z,77.14
2023-05-11T00:53:13.362Z,76.96
2023-05-11T00:55:40.974Z,76.96
2023-05-11T00:58:08.568Z,76.96
2023-05-11T01:00:37.041Z,76.90
2023-05-11T01:03:05.297Z,76.91
2023-05-11T01:06:13.583Z,76.80
2023-05-11T01:08:48.074Z,76.58
2023-05-11T01:11:41.087Z,76.36
2023-05-11T01:14:34.334Z,76.34
2023-05-11T01:17:09.710Z,76.31
2023-05-11T01:19:59.156Z,76.11
2023-05-11T01:22:26.800Z,76.16
2023-05-11T01:25:05.635Z,76.28
2023-05-11T01:27:42.840Z,76.18
2023-05-11T01:30:31.960Z,76.14
2023-05-11T01:33:06.972Z,76.37
2023-05-11T01:35:39.455Z,76.07
2023-05-11T01:38:12.682Z,76.00
2023-05-11T01:40:42.076Z,75.64
2023-05-11T01:43:21.674Z,75.65
2023-05-11T01:45:51.612Z,75.52
2023-05-11T01:48:24.313Z,75.57
2023-05-11T01:50:53.130Z,75.54
2023-05-11T01:53:22.812Z,75.68
2023-05-11T01:55:52.345Z,75.62
2023-05-11T01:58:21.893Z,75.51
2023-05-11T02:00:49.914Z,75.47
2023-05-11T02:03:20.448Z,75.54
2023-05-11T02:05:50.987Z,75.58
2023-05-11T02:08:21.797Z,75.38
2023-05-11T02:10:50.708Z,75.69
2023-05-11T02:13:20.185Z,75.89
2023-05-11T02:15:52.368Z,76.19
2023-05-11T02:18:21.098Z,75.99
2023-05-11T02:20:59.798Z,76.11
2023-05-11T02:23:28.243Z,76.21
2023-05-11T02:25:56.952Z,76.27
2023-05-11T02:28:25.221Z,76.36
2023-05-11T02:30:55.635Z,76.50
2023-05-11T02:33:34.453Z,76.43
2023-05-11T02:36:03.515Z,76.52
2023-05-11T02:38:35.402Z,76.39
2023-05-11T02:41:09.412Z,76.17
2023-05-11T02:43:42.217Z,76.52
2023-05-11T02:46:16.593Z,76.26
2023-05-11T02:48:51.164Z,76.06
2023-05-11T02:51:23.540Z,76.57
2023-05-11T02:53:56.175Z,76.31
2023-05-11T02:56:25.826Z,76.20
2023-05-11T02:58:55.958Z,76.26
2023-05-11T03:01:29.691Z,76.47
2023-05-11T03:03:58.421Z,76.25
2023-05-11T03:06:27.997Z,76.45
2023-05-11T03:08:55.694Z,76.31
2023-05-11T03:11:25.947Z,76.30
2023-05-11T03:13:53.640Z,76.51
2023-05-11T03:16:22.769Z,76.21
2023-05-11T03:18:51.588Z,76.16
2023-05-11T03:21:22.886Z,76.47
2023-05-11T03:23:51.095Z,76.26
2023-05-11T03:26:21.437Z,76.73
2023-05-11T03:28:52.464Z,76.53
2023-05-11T03:31:20.308Z,76.34
2023-05-11T03:33:48.154Z,76.82
2023-05-11T03:36:16.323Z,76.33
2023-05-11T03:38:47.812Z,76.42
2023-05-11T03:41:19.178Z,76.87
2023-05-11T03:43:52.788Z,76.43
2023-05-11T03:46:23.311Z,76.52
2023-05-11T03:48:51.777Z,77.03
2023-05-11T03:51:24.153Z,76.73
2023-05-11T03:53:51.729Z,76.36
2023-05-11T03:56:21.612Z,76.85
2023-05-11T03:58:49.773Z,77.01
2023-05-11T04:01:17.370Z,76.98
2023-05-11T04:03:51.140Z,76.83
2023-05-11T04:06:20.075Z,77.16
2023-05-11T04:08:53.013Z,77.31
2023-05-11T04:11:22.218Z,77.02
2023-05-11T04:13:50.335Z,77.12
2023-05-11T04:16:17.942Z,77.55
2023-05-11T04:18:45.506Z,77.45
2023-05-11T04:21:13.057Z,77.13
2023-05-11T04:23:42.408Z,77.27
2023-05-11T04:26:10.088Z,77.79
2023-05-11T04:28:38.330Z,77.48
2023-05-11T04:31:05.846Z,77.76
2023-05-11T04:33:33.425Z,78.07
2023-05-11T04:36:01.443Z,77.91
2023-05-11T04:38:29.032Z,78.07
2023-05-11T04:40:56.726Z,78.08
2023-05-11T04:43:24.684Z,77.54
2023-05-11T04:45:52.227Z,78.03
2023-05-11T04:48:28.018Z,77.87
2023-05-11T04:50:56.540Z,78.08
2023-05-11T04:53:28.660Z,78.43
2023-05-11T04:55:56.509Z,78.56
2023-05-11T04:58:24.054Z,78.84
2023-05-11T05:00:51.646Z,78.89
2023-05-11T05:03:20.022Z,78.75
2023-05-11T05:05:47.670Z,78.50
2023-05-11T05:08:15.542Z,78.58
2023-05-11T05:10:43.142Z,78.88
2023-05-11T05:13:10.821Z,79.04
2023-05-11T05:15:38.408Z,78.59
2023-05-11T05:18:06.443Z,78.40
2023-05-11T05:20:35.374Z,78.17
2023-05-11T05:23:03.162Z,78.22
2023-05-11T05:25:30.853Z,77.95
2023-05-11T05:27:58.372Z,77.95
2023-05-11T05:30:27.164Z,78.24
2023-05-11T05:32:55.200Z,78.22
2023-05-11T05:35:22.894Z,78.37
2023-05-11T05:37:50.712Z,78.30
2023-05-11T05:40:18.896Z,78.52
2023-05-11T05:42:50.936Z,78.79
2023-05-11T05:45:21.933Z,79.03
2023-05-11T05:47:51.852Z,79.01
2023-05-11T05:50:20.666Z,79.20
2023-05-11T05:52:48.348Z,78.98
2023-05-11T05:55:16.764Z,79.57
2023-05-11T05:57:46.414Z,80.04
2023-05-11T06:00:14.850Z,80.35
2023-05-11T06:02:42.415Z,79.82
2023-05-11T06:05:18.920Z,80.24
2023-05-11T06:07:58.103Z,80.73
2023-05-11T06:10:34.854Z,80.38
2023-05-11T06:13:03.190Z,80.70
2023-05-11T06:15:30.979Z,80.51
2023-05-11T06:18:05.675Z,80.25
2023-05-11T06:20:33.410Z,80.23
2023-05-11T06:23:01.666Z,79.78
2023-05-11T06:25:29.792Z,79.91
2023-05-11T06:27:57.468Z,79.62
2023-05-11T06:30:25.136Z,79.35
2023-05-11T06:32:53.927Z,79.34
2023-05-11T06:35:22.693Z,79.46
2023-05-11T06:37:51.777Z,78.98
2023-05-11T06:40:20.012Z,79.11
2023-05-11T06:42:47.845Z,79.22
2023-05-11T06:45:15.600Z,79.05
2023-05-11T06:47:43.777Z,78.98
2023-05-11T06:50:11.491Z,78.38
2023-05-11T06:52:39.354Z,78.63
2023-05-11T06:55:07.521Z,78.59
2023-05-11T06:57:35.139Z,78.26
2023-05-11T07:00:02.775Z,78.35
2023-05-11T07:02:32.294Z,77.22
2023-05-11T07:04:59.977Z,77.27
2023-05-11T07:07:27.648Z,76.23
2023-05-11T07:10:20.331Z,76.20
2023-05-11T07:12:48.218Z,75.74
2023-05-11T07:15:15.825Z,75.54
2023-05-11T07:17:46.426Z,74.80
2023-05-11T07:20:14.200Z,74.79
2023-05-11T07:22:41.889Z,74.34
2023-05-11T07:25:12.267Z,74.14
2023-05-11T07:27:40.127Z,73.71
2023-05-11T07:30:08.339Z,73.60
2023-05-11T07:32:35.988Z,73.35
2023-05-11T07:35:03.550Z,73.77
2023-05-11T07:37:31.319Z,73.04
2023-05-11T07:39:58.982Z,72.99
2023-05-11T07:42:26.607Z,73.11
2023-05-11T07:44:54.160Z,72.99
2023-05-11T07:47:21.970Z,72.61
2023-05-11T07:49:50.409Z,72.47
2023-05-11T07:52:17.981Z,71.75
2023-05-11T07:54:45.599Z,71.37
2023-05-11T07:57:14.020Z,70.86
2023-05-11T07:59:41.651Z,70.50
2023-05-11T08:02:12.225Z,70.29
2023-05-11T08:04:41.037Z,69.92
2023-05-11T08:07:09.094Z,69.04
2023-05-11T08:09:37.215Z,68.39
2023-05-11T08:12:05.013Z,68.29
2023-05-11T08:14:33.118Z,68.08
2023-05-11T08:17:01.026Z,67.60
2023-05-11T08:19:29.127Z,66.83
2023-05-11T08:21:57.722Z,67.40
2023-05-11T08:24:25.912Z,66.78
2023-05-11T08:26:54.072Z,67.09
2023-05-11T08:29:21.681Z,66.63
2023-05-11T08:31:50.003Z,66.82
2023-05-11T08:34:20.028Z,66.82
2023-05-11T08:36:48.043Z,67.48
2023-05-11T08:39:24.690Z,67.68
2023-05-11T08:42:02.782Z,67.39
2023-05-11T08:44:33.403Z,67.72
2023-05-11T08:47:18.871Z,67.54
2023-05-11T08:49:49.099Z,67.36
2023-05-11T08:52:28.923Z,67.51
2023-05-11T08:54:59.480Z,68.14
2023-05-11T08:57:31.886Z,67.81
2023-05-11T09:00:02.159Z,67.91
2023-05-11T09:02:31.139Z,68.35
2023-05-11T09:05:01.792Z,67.91
2023-05-11T09:07:29.879Z,68.06
2023-05-11T09:09:58.339Z,68.43
2023-05-11T09:12:29.086Z,68.89
2023-05-11T09:15:02.035Z,69.88
2023-05-11T09:17:30.852Z,70.44
2023-05-11T09:20:05.882Z,71.19
2023-05-11T09:22:41.018Z,72.28
2023-05-11T09:25:15.999Z,73.10
2023-05-11T09:27:46.593Z,73.24
2023-05-11T09:30:23.162Z,74.32
2023-05-11T09:32:57.660Z,74.23
2023-05-11T09:35:31.540Z,74.43
2023-05-11T09:38:12.159Z,74.13
2023-05-11T09:40:52.620Z,73.30
2023-05-11T09:43:29.512Z,71.48
2023-05-11T09:46:01.971Z,68.86
2023-05-11T09:48:32.198Z,66.91
2023-05-11T09:51:07.970Z,64.96
2023-05-11T09:53:44.691Z,62.67
2023-05-11T09:56:14.103Z,60.87
2023-05-11T09:58:47.453Z,59.53
2023-05-11T10:01:16.449Z,59.39
2023-05-11T10:03:48.894Z,59.09
2023-05-11T10:06:18.777Z,59.61
2023-05-11T10:08:49.175Z,59.04
2023-05-11T10:11:16.931Z,57.66
2023-05-11T10:13:45.973Z,56.65
2023-05-11T10:16:16.741Z,54.91
2023-05-11T10:18:45.799Z,53.55
2023-05-11T10:21:15.513Z,51.58
2023-05-11T10:23:43.229Z,49.00
2023-05-11T10:26:11.197Z,46.87
2023-05-11T10:28:39.345Z,45.13
2023-05-11T10:31:08.251Z,44.29
2023-05-11T10:33:36.587Z,42.02
2023-05-11T10:36:04.706Z,41.39
2023-05-11T10:38:32.359Z,40.50
2023-05-11T10:41:14.346Z,41.06
2023-05-11T10:44:15.747Z,40.24
2023-05-11T10:47:02.224Z,40.90
2023-05-11T10:49:29.748Z,39.17
2023-05-11T10:52:19.974Z,38.94
2023-05-11T10:55:13.455Z,38.81
2023-05-11T10:58:09.550Z,38.26
2023-05-11T11:00:59.142Z,38.48
2023-05-11T11:03:26.935Z,38.61
2023-05-11T11:05:54.614Z,38.29
2023-05-11T11:08:22.596Z,39.14
2023-05-11T11:10:51.668Z,39.72
2023-05-11T11:13:20.321Z,40.43
2023-05-11T11:15:54.164Z,41.04
2023-05-11T11:18:24.088Z,41.18
2023-05-11T11:20:54.198Z,41.44
2023-05-11T11:26:10.263Z,43.69
2023-05-11T11:29:02.154Z,44.47
2023-05-11T11:31:32.386Z,44.77
2023-05-11T11:34:29.375Z,44.88
2023-05-11T11:37:01.920Z,45.53
2023-05-11T11:39:50.341Z,44.96
2023-05-11T11:42:32.787Z,45.04
2023-05-11T11:45:30.520Z,44.23
2023-05-11T11:48:14.934Z,43.18
2023-05-11T11:50:44.694Z,42.67
2023-05-11T11:53:41.116Z,41.24
2023-05-11T11:56:28.957Z,40.69
2023-05-11T11:58:58.172Z,39.72
2023-05-11T12:01:35.202Z,39.77
2023-05-11T12:04:05.916Z,38.70
2023-05-11T12:06:41.513Z,38.50
2023-05-11T12:09:09.344Z,37.67
2023-05-11T12:11:38.256Z,36.79
2023-05-11T12:14:09.174Z,35.66
2023-05-11T12:16:36.812Z,35.89
2023-05-11T12:19:04.545Z,35.07
2023-05-11T12:21:32.766Z,35.49
2023-05-11T12:24:05.486Z,35.83
2023-05-11T12:26:34.582Z,35.59
2023-05-11T12:29:13.996Z,35.50
2023-05-11T12:31:43.773Z,35.99
2023-05-11T12:34:19.704Z,35.60
2023-05-11T12:36:48.850Z,35.70
2023-05-11T12:39:27.801Z,35.40
2023-05-11T12:41:57.000Z,34.73
2023-05-11T12:44:26.899Z,34.87
2023-05-11T12:46:54.843Z,34.43
2023-05-11T12:49:26.220Z,34.29
2023-05-11T12:52:09.258Z,35.61
2023-05-11T12:54:39.489Z,36.36
2023-05-11T12:57:08.771Z,36.18
2023-05-11T12:59:39.608Z,35.74
2023-05-11T13:02:12.301Z,35.89
2023-05-11T13:04:41.963Z,36.12
2023-05-11T13:07:10.634Z,36.55
2023-05-11T13:09:39.408Z,35.14
2023-05-11T13:12:18.648Z,34.94
2023-05-11T13:14:51.041Z,35.16
2023-05-11T13:17:37.118Z,35.91
2023-05-11T13:20:18.242Z,36.47
2023-05-11T13:22:47.152Z,36.77
2023-05-11T13:25:17.236Z,37.36
2023-05-11T13:27:45.133Z,36.87
2023-05-11T13:30:13.214Z,36.78
2023-05-11T13:32:41.007Z,36.84
2023-05-11T13:35:09.076Z,36.11
2023-05-11T13:37:37.143Z,35.07
2023-05-11T13:40:06.656Z,34.62
2023-05-11T13:42:34.745Z,35.04
2023-05-11T13:45:02.592Z,35.05
2023-05-11T13:47:32.108Z,34.95
2023-05-11T13:50:00.021Z,35.64
2023-05-11T13:52:27.944Z,36.25
2023-05-11T13:54:57.128Z,36.86
2023-05-11T13:57:25.340Z,37.76
2023-05-11T13:59:53.597Z,37.82
2023-05-11T14:02:21.714Z,37.91
2023-05-11T14:04:49.933Z,38.00
2023-05-11T14:07:17.845Z,37.99
2023-05-11T14:09:47.823Z,37.96
2023-05-11T14:12:16.051Z,37.97
2023-05-11T14:14:44.365Z,38.16
2023-05-11T14:17:13.692Z,38.34
2023-05-11T14:19:41.636Z,38.41
2023-05-11T14:22:09.310Z,38.01
2023-05-11T14:24:37.079Z,38.20
2023-05-11T14:27:04.829Z,38.44
2023-05-11T14:29:33.079Z,39.28
2023-05-11T14:32:00.766Z,39.55
2023-05-11T14:34:28.326Z,39.59
2023-05-11T14:36:56.893Z,39.67
2023-05-11T14:39:24.764Z,39.52
2023-05-11T14:41:52.294Z,39.19
2023-05-11T14:44:19.842Z,38.98
2023-05-11T14:46:47.647Z,38.35
2023-05-11T14:49:15.273Z,38.31
2023-05-11T14:51:43.776Z,38.12
2023-05-11T14:54:11.437Z,37.80
2023-05-11T14:56:38.953Z,37.33
2023-05-11T14:59:06.861Z,37.42
2023-05-11T15:01:34.630Z,37.13
2023-05-11T15:04:02.291Z,36.75
2023-05-11T15:06:30.508Z,37.06
2023-05-11T15:08:58.193Z,37.44
2023-05-11T15:11:26.195Z,38.16
2023-05-11T15:13:53.844Z,38.58
2023-05-11T15:16:21.439Z,38.87
2023-05-11T15:18:49.114Z,39.04
2023-05-11T15:21:17.000Z,39.11
2023-05-11T15:23:44.523Z,39.11
2023-05-11T15:26:14.449Z,38.91
2023-05-11T15:28:42.102Z,39.80
2023-05-11T15:31:09.743Z,41.25
2023-05-11T15:33:37.332Z,42.73
2023-05-11T15:36:12.844Z,43.65
2023-05-11T15:38:41.740Z,44.38
2023-05-11T15:41:09.646Z,45.35
2023-05-11T15:43:37.383Z,45.36
2023-05-11T15:46:05.811Z,44.84
2023-05-11T15:48:33.781Z,44.53
2023-05-11T15:51:01.411Z,44.12
2023-05-11T15:53:29.067Z,44.27
2023-05-11T15:55:57.204Z,44.40
2023-05-11T15:58:25.128Z,44.16
2023-05-11T16:00:52.802Z,44.04
2023-05-11T16:03:21.065Z,43.54
2023-05-11T16:05:48.755Z,43.72
2023-05-11T16:08:16.443Z,43.92
2023-05-11T16:10:44.538Z,44.39
2023-05-11T16:13:12.321Z,44.46
2023-05-11T16:15:40.151Z,44.70
2023-05-11T16:18:07.855Z,44.80
2023-05-11T16:20:35.495Z,44.63
2023-05-11T16:23:04.318Z,44.36
2023-05-11T16:25:31.843Z,44.88
2023-05-11T16:27:59.498Z,44.60
2023-05-11T16:30:27.318Z,44.38
2023-05-11T16:32:55.349Z,44.19
2023-05-11T16:35:23.035Z,44.46
2023-05-11T16:37:50.751Z,44.79
2023-05-11T16:40:21.151Z,44.88
2023-05-11T16:42:49.488Z,45.29
2023-05-11T16:45:17.067Z,45.51
2023-05-11T16:47:47.464Z,45.33
2023-05-11T16:50:16.635Z,45.67
2023-05-11T16:52:44.305Z,45.14
2023-05-11T16:55:11.940Z,43.17
2023-05-11T16:57:39.486Z,41.70
2023-05-11T17:00:08.504Z,41.61
2023-05-11T17:02:36.955Z,41.48
2023-05-11T17:05:06.306Z,41.24
2023-05-11T17:07:34.389Z,40.91
2023-05-11T17:10:02.414Z,40.59
2023-05-11T17:12:30.267Z,40.28
2023-05-11T17:14:58.411Z,40.02
2023-05-11T17:17:26.321Z,39.64
2023-05-11T17:19:54.391Z,39.36
2023-05-11T17:22:22.422Z,39.33
2023-05-11T17:24:50.490Z,39.28
2023-05-11T17:27:18.055Z,39.63
2023-05-11T17:29:45.639Z,39.61
2023-05-11T17:32:13.470Z,39.91
2023-05-11T17:34:41.558Z,40.00
2023-05-11T17:37:14.927Z,39.66
2023-05-11T17:39:52.441Z,39.83
2023-05-11T17:42:22.761Z,40.89
2023-05-11T17:44:50.298Z,41.52
2023-05-11T17:47:18.259Z,41.67
2023-05-11T17:49:45.825Z,42.60
2023-05-11T17:52:13.724Z,43.75
2023-05-11T17:54:41.380Z,44.64
2023-05-11T17:57:08.926Z,45.22
2023-05-11T17:59:36.514Z,45.65
2023-05-11T18:02:04.235Z,45.99
2023-05-11T18:04:31.837Z,46.22
2023-05-11T18:07:00.369Z,46.47
2023-05-11T18:09:28.011Z,46.91
2023-05-11T18:11:55.737Z,47.15
2023-05-11T18:14:23.604Z,47.60
2023-05-11T18:16:53.164Z,48.16
2023-05-11T18:19:20.727Z,48.34
2023-05-11T18:21:49.293Z,48.79
2023-05-11T18:24:18.329Z,49.54
2023-05-11T18:26:45.857Z,50.14
2023-05-11T18:29:15.449Z,50.58
2023-05-11T18:31:44.168Z,51.11
2023-05-11T18:34:11.740Z,51.78
2023-05-11T18:36:41.909Z,52.29
2023-05-11T18:39:09.602Z,52.67
2023-05-11T18:41:37.231Z,53.05
2023-05-11T18:44:05.044Z,53.30
2023-05-11T18:46:32.679Z,53.27
2023-05-11T18:49:00.317Z,54.05
2023-05-11T18:51:27.844Z,54.74
2023-05-11T18:53:55.815Z,55.46
2023-05-11T18:56:23.410Z,55.83
2023-05-11T18:58:51.069Z,56.19
2023-05-11T19:01:18.986Z,56.68
2023-05-11T19:03:47.186Z,57.26
2023-05-11T19:06:14.762Z,57.60
2023-05-11T19:08:42.451Z,57.93
2023-05-11T19:11:10.674Z,58.27
2023-05-11T19:13:38.412Z,58.46
2023-05-11T19:16:06.147Z,58.75
2023-05-11T19:18:35.762Z,58.90
2023-05-11T19:21:05.332Z,59.43
2023-05-11T19:23:33.792Z,59.83
2023-05-11T19:26:01.296Z,60.09
2023-05-11T19:28:29.152Z,60.28
2023-05-11T19:31:04.674Z,60.57
2023-05-11T19:33:33.190Z,60.78
2023-05-11T19:36:01.030Z,61.56
2023-05-11T19:38:28.679Z,62.00
2023-05-11T19:40:56.454Z,62.04
2023-05-11T19:43:24.464Z,62.36
2023-05-11T19:45:52.193Z,62.29
2023-05-11T19:48:19.920Z,62.84
2023-05-11T19:50:47.619Z,62.80
2023-05-11T19:53:15.207Z,63.28
2023-05-11T19:55:44.835Z,63.52
2023-05-11T19:58:13.564Z,63.62
2023-05-11T20:00:41.514Z,63.94
2023-05-11T20:03:09.326Z,63.95
2023-05-11T20:05:36.984Z,63.92
2023-05-11T20:08:06.250Z,64.20
2023-05-11T20:10:34.844Z,64.15
2023-05-11T20:13:06.364Z,64.59
2023-05-11T20:15:34.322Z,64.53
2023-05-11T20:18:05.227Z,64.53
2023-05-11T20:20:33.726Z,64.57
2023-05-11T20:23:02.463Z,64.72
2023-05-11T20:25:30.077Z,64.90
2023-05-11T20:27:57.698Z,65.37
2023-05-11T20:30:25.454Z,65.35
2023-05-11T20:35:23.511Z,65.86
2023-05-11T20:37:51.025Z,65.80
2023-05-11T20:40:18.954Z,65.94
2023-05-11T20:42:46.793Z,65.77
2023-05-11T20:45:15.390Z,66.27
2023-05-11T20:47:43.061Z,65.82
2023-05-11T20:50:11.157Z,66.13
2023-05-11T20:52:38.730Z,66.24
2023-05-11T20:55:07.388Z,66.74
2023-05-11T20:57:35.485Z,66.87
2023-05-11T21:00:04.404Z,66.94
2023-05-11T21:02:33.010Z,66.51
2023-05-11T21:05:02.603Z,66.75
2023-05-11T21:07:31.970Z,67.32
2023-05-11T21:10:00.755Z,67.31
2023-05-11T21:12:28.493Z,67.35
2023-05-11T21:14:57.121Z,67.37
2023-05-11T21:17:25.157Z,67.70
2023-05-11T21:19:52.828Z,68.04
2023-05-11T21:22:20.441Z,68.01
2023-05-11T21:24:48.390Z,68.58
2023-05-11T21:27:15.968Z,68.72
2023-05-11T21:29:43.529Z,69.58
2023-05-11T21:32:11.911Z,69.49
2023-05-11T21:34:39.637Z,70.00
2023-05-11T21:37:07.263Z,69.90
2023-05-11T21:39:34.877Z,70.47
2023-05-11T21:42:02.979Z,70.79
2023-05-11T21:44:30.704Z,70.75
2023-05-11T21:46:58.523Z,71.54
2023-05-11T21:49:26.825Z,71.53
2023-05-11T21:51:54.334Z,71.79
2023-05-11T21:54:22.518Z,72.21
2023-05-11T21:56:52.184Z,72.18
2023-05-11T21:59:20.093Z,72.30
2023-05-11T22:01:49.236Z,72.48
2023-05-11T22:04:17.208Z,72.71
2023-05-11T22:06:44.785Z,72.84
2023-05-11T22:09:12.721Z,72.77
2023-05-11T22:11:40.333Z,72.91
2023-05-11T22:14:08.087Z,72.90
2023-05-11T22:16:35.724Z,72.88
2023-05-11T22:19:04.227Z,72.70
2023-05-11T22:21:31.776Z,72.46
2023-05-11T22:23:59.357Z,72.81
2023-05-11T22:26:27.038Z,72.79
2023-05-11T22:28:55.022Z,72.60
2023-05-11T22:31:22.672Z,72.72
2023-05-11T22:33:50.319Z,72.88
2023-05-11T22:36:18.263Z,72.53
2023-05-11T22:38:45.833Z,73.31
2023-05-11T22:41:13.502Z,73.25
2023-05-11T22:43:41.078Z,73.18
2023-05-11T22:46:08.698Z,73.24
2023-05-11T22:48:36.346Z,73.56
2023-05-11T22:51:06.284Z,73.64
2023-05-11T22:53:33.970Z,73.38
2023-05-11T22:56:07.466Z,73.52
2023-05-11T22:58:35.143Z,73.79
2023-05-11T23:01:02.802Z,73.64
2023-05-11T23:03:30.465Z,73.82
2023-05-11T23:05:58.005Z,73.53
2023-05-11T23:08:26.753Z,73.41
2023-05-11T23:10:54.299Z,73.33
2023-05-11T23:13:22.593Z,73.40
2023-05-11T23:15:50.480Z,73.84
2023-05-11T23:18:18.275Z,73.84
2023-05-11T23:20:45.820Z,73.85
2023-05-11T23:23:13.543Z,74.28
2023-05-11T23:25:41.201Z,74.26
2023-05-11T23:28:11.496Z,74.14
2023-05-11T23:30:39.270Z,74.40
2023-05-11T23:33:07.071Z,74.44
2023-05-11T23:35:34.680Z,74.20
2023-05-11T23:38:02.231Z,74.41
2023-05-11T23:40:30.075Z,74.66
2023-05-11T23:42:57.711Z,74.31
2023-05-11T23:45:26.376Z,74.59
2023-05-11T23:47:54.067Z,74.53
2023-05-11T23:50:21.780Z,74.59
2023-05-11T23:52:49.754Z,74.79
2023-05-11T23:55:17.326Z,74.95
2023-05-11T23:57:45.135Z,74.91
